Time;durP1;ratioP1;P1;durP2;ratioP2;P2;SDS_P1;SDS_P2;PMS_P1;PMS_P2;Temp;Humidity;BMP_temperature;BMP_pressure;BME280_temperature;BME280_humidity;BME280_pressure;Samples;Min_cycle;Max_cycle;Signal;HPM_P1;HPM_P2
2022/12/11 00:00:21;;;;;;;4.22;3.88;;;13.50;59.70;;;;;;4984308;28;20058;-16
2022/12/11 00:02:47;;;;;;;4.55;4.25;;;13.50;59.80;;;;;;4983819;28;20097;-16
2022/12/11 00:05:13;;;;;;;4.07;3.78;;;13.60;59.80;;;;;;4983698;28;20141;-16
2022/12/11 00:07:39;;;;;;;3.63;3.33;;;13.60;59.90;;;;;;4983604;28;20133;-17
2022/12/11 00:10:05;;;;;;;4.38;4.03;;;13.60;59.70;;;;;;4984112;28;20864;-17
2022/12/11 00:12:31;;;;;;;3.70;3.42;;;13.60;59.80;;;;;;4984610;28;20050;-16
2022/12/11 00:14:57;;;;;;;4.13;3.83;;;13.60;59.80;;;;;;4984773;28;20043;-16
2022/12/11 00:17:22;;;;;;;3.90;3.50;;;13.50;59.70;;;;;;4985692;28;20074;-16
2022/12/11 00:19:48;;;;;;;3.83;3.53;;;13.50;59.80;;;;;;4984801;28;20115;-16
2022/12/11 00:22:13;;;;;;;3.60;3.30;;;13.50;59.80;;;;;;4984655;28;20411;-16
2022/12/11 00:24:39;;;;;;;3.70;3.47;;;13.50;59.80;;;;;;4983147;28;20121;-16
2022/12/11 00:27:05;;;;;;;3.88;3.58;;;13.60;59.80;;;;;;4984266;28;20536;-16
2022/12/11 00:29:30;;;;;;;4.13;3.72;;;13.50;59.80;;;;;;4983982;28;20193;-17
2022/12/11 00:31:56;;;;;;;3.53;3.22;;;13.60;59.80;;;;;;4985687;28;20038;-17
2022/12/11 00:34:21;;;;;;;3.80;3.58;;;13.60;59.80;;;;;;4985324;28;20492;-17
2022/12/11 00:36:47;;;;;;;3.38;3.15;;;13.60;59.80;;;;;;4987869;28;20080;-16
2022/12/11 00:39:12;;;;;;;3.60;3.40;;;13.50;59.80;;;;;;4988036;28;20116;-16
2022/12/11 00:41:38;;;;;;;3.88;3.63;;;13.50;59.80;;;;;;4987580;28;20081;-20
2022/12/11 00:44:04;;;;;;;3.58;3.25;;;13.60;59.80;;;;;;4987367;28;20054;-16
2022/12/11 00:46:29;;;;;;;3.90;3.60;;;13.50;59.80;;;;;;4988431;28;20499;-17
2022/12/11 00:48:55;;;;;;;3.33;3.05;;;13.60;59.80;;;;;;4991247;28;20050;-16
2022/12/11 00:51:21;;;;;;;3.80;3.50;;;13.50;59.60;;;;;;4990993;28;20657;-16
2022/12/11 00:53:46;;;;;;;3.63;3.42;;;13.50;59.70;;;;;;4989875;28;20046;-29
2022/12/11 00:56:17;;;;;;;3.45;3.25;;;13.60;59.80;;;;;;4990357;28;20047;-31
2022/12/11 00:58:43;;;;;;;3.50;3.30;;;13.50;60.60;;;;;;4992393;28;20046;-34
2022/12/11 01:01:10;;;;;;;3.65;3.35;;;13.50;59.70;;;;;;4990737;28;20042;-34
2022/12/11 01:03:36;;;;;;;3.42;3.22;;;13.50;59.70;;;;;;4990024;28;20046;-30
2022/12/11 01:06:02;;;;;;;3.20;2.90;;;13.50;59.70;;;;;;4989749;28;20472;-31
2022/12/11 01:08:27;;;;;;;3.40;3.20;;;13.50;59.70;;;;;;4990476;28;20388;-34
2022/12/11 01:11:04;;;;;;;3.33;3.13;;;13.50;59.60;;;;;;4989600;28;20062;-32
2022/12/11 01:13:29;;;;;;;4.13;3.83;;;13.50;59.70;;;;;;4989725;28;20331;-20
2022/12/11 01:15:55;;;;;;;4.25;3.95;;;13.50;59.70;;;;;;4988022;28;20499;-49
2022/12/11 01:18:21;;;;;;;3.70;3.50;;;13.50;59.80;;;;;;4990628;28;20076;-30
2022/12/11 01:20:46;;;;;;;4.13;3.83;;;13.50;59.60;;;;;;4989333;28;20174;-30
2022/12/11 01:23:12;;;;;;;3.60;3.40;;;13.50;59.60;;;;;;4990589;28;20068;-32
2022/12/11 01:25:38;;;;;;;3.40;3.20;;;13.50;59.50;;;;;;4988932;28;20035;-30
2022/12/11 01:28:04;;;;;;;3.63;3.42;;;13.40;59.60;;;;;;4986380;28;20046;-32
2022/12/11 01:30:29;;;;;;;3.92;3.40;;;13.50;59.50;;;;;;4989557;28;20039;-30
2022/12/11 01:32:55;;;;;;;3.55;3.35;;;13.40;59.60;;;;;;4988909;28;20034;-35
2022/12/11 01:35:20;;;;;;;3.70;3.50;;;13.40;59.60;;;;;;4989878;28;20045;-32
2022/12/11 01:37:46;;;;;;;3.75;3.55;;;13.50;59.70;;;;;;4988831;28;20042;-31
2022/12/11 01:40:16;;;;;;;3.00;2.80;;;13.50;59.50;;;;;;4989510;28;20046;-29
2022/12/11 01:42:42;;;;;;;3.70;3.42;;;13.50;59.50;;;;;;4988370;28;20042;-34
2022/12/11 01:45:20;;;;;;;3.60;3.30;;;13.40;59.50;;;;;;4989771;28;20152;-37
2022/12/11 01:47:46;;;;;;;3.70;3.47;;;13.40;59.60;;;;;;4987561;28;20043;-33
2022/12/11 01:50:12;;;;;;;3.65;3.35;;;13.40;59.50;;;;;;4989680;28;20057;-33
2022/12/11 01:52:37;;;;;;;3.92;3.63;;;13.40;59.50;;;;;;4988259;28;20046;-32
2022/12/11 01:55:03;;;;;;;3.78;3.55;;;13.40;60.10;;;;;;4988429;28;20416;-32
2022/12/11 01:57:29;;;;;;;3.65;3.35;;;13.40;59.60;;;;;;4988796;28;20049;-29
2022/12/11 01:59:54;;;;;;;4.28;3.92;;;13.40;59.50;;;;;;4989024;28;20537;-31
2022/12/11 02:02:22;;;;;;;3.75;3.55;;;13.50;59.40;;;;;;4988437;28;20073;-30
2022/12/11 02:04:48;;;;;;;3.40;3.20;;;13.40;59.50;;;;;;4987322;28;20181;-34
2022/12/11 02:07:14;;;;;;;3.97;3.78;;;13.40;59.50;;;;;;4989191;28;20117;-30
2022/12/11 02:09:40;;;;;;;3.92;3.63;;;13.40;59.40;;;;;;4988511;28;20085;-30
2022/12/11 02:12:06;;;;;;;4.05;3.75;;;13.40;59.50;;;;;;4988210;28;20081;-32
2022/12/11 02:14:50;;;;;;;3.55;3.35;;;13.40;59.50;;;;;;4989972;28;20042;-30
2022/12/11 02:17:35;;;;;;;3.50;3.30;;;13.40;59.50;;;;;;4988856;28;20053;-30
2022/12/11 02:20:12;;;;;;;3.67;3.47;;;13.40;59.40;;;;;;4986954;28;20074;-34
2022/12/11 02:22:44;;;;;;;3.95;3.67;;;13.40;59.50;;;;;;4985470;28;20040;-31
2022/12/11 02:26:00;;;;;;;3.80;3.50;;;13.30;59.40;;;;;;4988787;28;20129;-30
2022/12/11 02:28:53;;;;;;;3.70;3.42;;;13.30;59.40;;;;;;4971795;28;20550;-29
2022/12/11 02:31:39;;;;;;;3.47;3.28;;;13.30;59.50;;;;;;4972709;28;20041;-30
2022/12/11 02:34:08;;;;;;;3.33;3.13;;;13.30;59.40;;;;;;5016483;28;20054;-31
2022/12/11 02:36:36;;;;;;;3.38;3.17;;;13.30;59.50;;;;;;4987470;28;20077;-35
2022/12/11 02:39:02;;;;;;;4.18;3.88;;;13.30;59.60;;;;;;4983415;28;20065;-29
2022/12/11 02:41:28;;;;;;;3.80;3.50;;;13.30;59.50;;;;;;4987318;28;20503;-29
2022/12/11 02:43:54;;;;;;;3.72;3.53;;;13.30;59.70;;;;;;4987885;28;20038;-31
2022/12/11 02:46:19;;;;;;;3.47;3.28;;;13.30;59.60;;;;;;4987750;28;20069;-30
2022/12/11 02:48:45;;;;;;;3.53;3.33;;;13.30;59.50;;;;;;4988310;28;20050;-29
2022/12/11 02:51:11;;;;;;;4.00;3.70;;;13.30;59.60;;;;;;4984491;28;20046;-33
2022/12/11 02:53:37;;;;;;;3.13;2.92;;;13.30;59.60;;;;;;4986867;28;20093;-31
2022/12/11 02:56:25;;;;;;;3.60;3.30;;;13.30;59.50;;;;;;4987319;28;20034;-33
2022/12/11 02:58:58;;;;;;;3.17;2.97;;;13.30;59.60;;;;;;4987115;28;20049;-29
2022/12/11 03:01:24;;;;;;;3.15;2.95;;;13.20;59.50;;;;;;4987484;28;20045;-31
2022/12/11 03:03:51;;;;;;;3.47;3.28;;;13.20;59.60;;;;;;4988290;28;20038;-38
2022/12/11 03:06:17;;;;;;;3.88;3.67;;;13.20;59.70;;;;;;4987394;28;20046;-32
2022/12/11 03:08:43;;;;;;;3.40;3.20;;;13.20;59.50;;;;;;4986614;28;20550;-30
2022/12/11 03:11:12;;;;;;;3.22;2.95;;;13.20;59.60;;;;;;4987757;28;20058;-29
2022/12/11 03:13:38;;;;;;;3.30;3.10;;;13.20;59.80;;;;;;4986688;28;20046;-35
2022/12/11 03:16:07;;;;;;;3.25;3.05;;;13.20;59.80;;;;;;4987243;28;20423;-30
2022/12/11 03:18:34;;;;;;;4.10;3.80;;;13.20;59.80;;;;;;4988454;28;20052;-29
2022/12/11 03:21:09;;;;;;;3.55;3.35;;;13.10;59.80;;;;;;4984828;28;20097;-30
2022/12/11 03:23:57;;;;;;;3.55;3.35;;;13.20;59.80;;;;;;4986561;28;20049;-32
2022/12/11 03:26:22;;;;;;;3.80;3.60;;;13.10;59.90;;;;;;4986685;28;20557;-31
2022/12/11 03:28:53;;;;;;;3.55;3.35;;;13.10;59.80;;;;;;4987235;28;20077;-30
2022/12/11 03:31:32;;;;;;;3.88;3.58;;;13.10;59.90;;;;;;5016334;28;20042;-29
2022/12/11 03:34:00;;;;;;;3.30;3.10;;;13.10;59.90;;;;;;4971478;28;20116;-29
2022/12/11 03:36:29;;;;;;;3.20;3.00;;;13.20;60.10;;;;;;4986768;28;20046;-32
2022/12/11 03:39:16;;;;;;;3.72;3.53;;;13.20;60.00;;;;;;4984474;28;20045;-30
2022/12/11 03:41:42;;;;;;;3.22;3.03;;;13.20;59.90;;;;;;4985171;28;20053;-32
2022/12/11 03:44:07;;;;;;;3.50;3.30;;;13.20;59.70;;;;;;4987744;28;20035;-33
2022/12/11 03:46:35;;;;;;;3.17;2.97;;;13.10;59.70;;;;;;4982824;28;20500;-30
2022/12/11 03:49:06;;;;;;;2.97;2.78;;;13.10;59.90;;;;;;5002611;28;20526;-30
2022/12/11 03:51:32;;;;;;;3.40;3.20;;;13.20;59.80;;;;;;4987861;28;20070;-32
2022/12/11 03:53:57;;;;;;;3.17;2.97;;;13.20;59.90;;;;;;4986181;28;20124;-30
2022/12/11 03:56:23;;;;;;;3.00;2.80;;;13.10;59.90;;;;;;4986609;28;20042;-31
2022/12/11 03:58:49;;;;;;;3.40;3.20;;;13.10;59.70;;;;;;4969763;28;20035;-30
2022/12/11 04:01:15;;;;;;;2.85;2.65;;;13.10;59.80;;;;;;4987989;28;20048;-29
2022/12/11 04:03:40;;;;;;;3.20;3.00;;;13.10;60.10;;;;;;4987596;28;20069;-27
2022/12/11 04:06:06;;;;;;;2.80;2.60;;;13.10;59.80;;;;;;4987294;28;20532;-32
2022/12/11 04:08:32;;;;;;;3.08;2.88;;;13.00;59.90;;;;;;4989459;28;20042;-31
2022/12/11 04:13:41;;;;;;;3.08;2.88;;;13.00;60.00;;;;;;4991209;28;20181;-32
2022/12/11 04:16:07;;;;;;;3.10;2.90;;;13.10;60.00;;;;;;4991104;28;20054;-37
2022/12/11 04:24:16;;;;;;;3.15;2.95;;;13.00;60.00;;;;;;4987671;28;20125;-32
2022/12/11 04:26:43;;;;;;;3.10;2.90;;;13.10;59.90;;;;;;4990906;28;20050;-36
2022/12/11 04:29:09;;;;;;;3.10;2.90;;;13.10;59.90;;;;;;4991433;28;20066;-31
2022/12/11 04:31:34;;;;;;;2.80;2.63;;;13.00;59.90;;;;;;4990900;28;20042;-30
2022/12/11 04:34:00;;;;;;;3.42;3.22;;;13.00;59.90;;;;;;4990621;28;20049;-29
2022/12/11 04:36:25;;;;;;;3.08;2.90;;;13.00;60.00;;;;;;4991365;28;20443;-30
2022/12/11 04:38:51;;;;;;;2.88;2.72;;;13.10;60.00;;;;;;4990235;28;20094;-31
2022/12/11 04:41:17;;;;;;;3.38;3.17;;;13.10;59.80;;;;;;4988918;28;20416;-32
2022/12/11 04:43:45;;;;;;;3.13;2.92;;;13.10;59.90;;;;;;4990318;28;20047;-34
2022/12/11 04:46:15;;;;;;;2.60;2.50;;;13.10;59.70;;;;;;4988460;28;20038;-32
2022/12/11 04:48:41;;;;;;;3.22;3.03;;;13.00;59.80;;;;;;4990023;28;20042;-32
2022/12/11 04:51:07;;;;;;;2.75;2.65;;;13.10;59.80;;;;;;4991133;28;20511;-29
2022/12/11 04:53:33;;;;;;;3.03;2.83;;;13.10;60.00;;;;;;4990072;28;20507;-29
2022/12/11 04:55:58;;;;;;;3.08;2.78;;;13.10;59.70;;;;;;4989364;28;20239;-29
2022/12/11 04:58:24;;;;;;;2.53;2.42;;;13.00;59.90;;;;;;4991560;28;20073;-30
2022/12/11 05:00:50;;;;;;;3.20;3.00;;;13.10;59.80;;;;;;4987019;28;20049;-32
2022/12/11 05:03:16;;;;;;;3.13;2.92;;;13.00;59.80;;;;;;4988682;28;20030;-29
2022/12/11 05:05:50;;;;;;;3.50;3.30;;;13.00;60.00;;;;;;4989601;28;20496;-30
2022/12/11 05:08:16;;;;;;;3.40;3.20;;;13.00;59.90;;;;;;4987906;28;20061;-39
2022/12/11 05:10:42;;;;;;;2.75;2.65;;;13.00;59.90;;;;;;4990041;28;20074;-30
2022/12/11 05:13:08;;;;;;;2.47;2.38;;;13.00;60.10;;;;;;4988692;28;20132;-31
2022/12/11 05:15:33;;;;;;;3.20;3.00;;;12.90;59.90;;;;;;4990292;28;20389;-29
2022/12/11 05:17:59;;;;;;;3.25;2.95;;;13.00;59.90;;;;;;4989426;28;20035;-29
2022/12/11 05:20:24;;;;;;;3.05;2.90;;;13.00;60.00;;;;;;4990068;28;20042;-30
2022/12/11 05:22:50;;;;;;;3.17;2.97;;;13.10;59.90;;;;;;4989692;28;20045;-30
2022/12/11 05:25:15;;;;;;;2.67;2.47;;;13.00;59.90;;;;;;4989935;28;20129;-32
2022/12/11 05:27:41;;;;;;;2.70;2.50;;;13.00;60.00;;;;;;4986709;28;20046;-28
2022/12/11 05:30:08;;;;;;;2.60;2.50;;;13.00;60.00;;;;;;4989942;28;20050;-30
2022/12/11 05:32:34;;;;;;;2.58;2.38;;;13.00;59.80;;;;;;4990594;28;20038;-33
2022/12/11 05:35:00;;;;;;;2.50;2.40;;;13.00;59.90;;;;;;4988748;28;20049;-36
2022/12/11 05:37:25;;;;;;;2.97;2.78;;;13.00;59.90;;;;;;4990253;28;20035;-29
2022/12/11 05:39:51;;;;;;;2.60;2.50;;;13.00;59.90;;;;;;4989022;28;20057;-31
2022/12/11 05:42:17;;;;;;;2.70;2.60;;;13.10;59.80;;;;;;4987114;28;20054;-30
2022/12/11 05:44:42;;;;;;;2.67;2.58;;;13.10;59.80;;;;;;4989104;28;20058;-30
2022/12/11 05:47:08;;;;;;;3.08;2.88;;;13.10;59.70;;;;;;4987530;28;20121;-30
2022/12/11 05:49:33;;;;;;;2.72;2.58;;;13.00;59.70;;;;;;4990036;28;20512;-31
2022/12/11 05:51:59;;;;;;;2.38;2.28;;;13.10;59.60;;;;;;4989458;28;20046;-32
2022/12/11 05:54:24;;;;;;;2.50;2.40;;;13.00;59.90;;;;;;4989054;28;20789;-35
2022/12/11 05:56:50;;;;;;;2.80;2.63;;;13.00;59.90;;;;;;4989439;28;20047;-32
2022/12/11 05:59:17;;;;;;;2.90;2.70;;;13.00;59.80;;;;;;4989969;28;20527;-33
2022/12/11 06:01:43;;;;;;;2.60;2.50;;;13.10;59.60;;;;;;4989611;28;20046;-30
2022/12/11 06:04:09;;;;;;;2.30;2.20;;;13.10;59.80;;;;;;4989332;28;20635;-30
2022/12/11 06:06:35;;;;;;;2.28;2.17;;;13.10;59.50;;;;;;4989346;28;20045;-30
2022/12/11 06:09:01;;;;;;;2.75;2.63;;;13.10;59.60;;;;;;4988009;28;20034;-29
2022/12/11 06:11:28;;;;;;;2.50;2.40;;;13.00;59.70;;;;;;4988763;28;20378;-33
2022/12/11 06:13:54;;;;;;;2.72;2.63;;;13.00;59.70;;;;;;4988926;28;20069;-38
2022/12/11 06:16:20;;;;;;;2.55;2.35;;;13.10;59.80;;;;;;4986356;28;20046;-34
2022/12/11 06:18:46;;;;;;;2.40;2.30;;;13.10;59.60;;;;;;4988801;28;20046;-39
2022/12/11 06:21:13;;;;;;;2.25;2.15;;;13.10;59.60;;;;;;4986490;28;20042;-32
2022/12/11 06:23:39;;;;;;;2.67;2.50;;;13.10;59.50;;;;;;4989666;28;20442;-31
2022/12/11 06:26:04;;;;;;;2.33;2.22;;;13.10;59.60;;;;;;4988080;28;20050;-29
2022/12/11 06:28:30;;;;;;;2.63;2.53;;;13.20;59.50;;;;;;4989266;28;20427;-31
2022/12/11 06:30:59;;;;;;;2.33;2.22;;;13.20;59.40;;;;;;4987543;28;20125;-29
2022/12/11 06:33:25;;;;;;;2.47;2.38;;;13.10;59.40;;;;;;4989287;28;20054;-32
2022/12/11 06:35:50;;;;;;;2.75;2.65;;;13.10;59.60;;;;;;4988213;28;20400;-34
2022/12/11 06:38:16;;;;;;;2.63;2.53;;;13.00;59.80;;;;;;4989155;28;20125;-28
2022/12/11 06:40:42;;;;;;;2.10;2.00;;;13.10;59.70;;;;;;4989287;28;20495;-30
2022/12/11 06:43:07;;;;;;;2.28;2.17;;;13.10;60.40;;;;;;4988218;28;20055;-37
2022/12/11 06:45:33;;;;;;;2.00;1.90;;;13.10;59.50;;;;;;4988039;28;20070;-29
2022/12/11 06:47:59;;;;;;;2.28;2.17;;;13.10;59.70;;;;;;4988557;28;20133;-33
2022/12/11 06:50:24;;;;;;;2.35;2.25;;;13.10;59.50;;;;;;4988285;28;20050;-35
2022/12/11 06:52:50;;;;;;;2.45;2.35;;;13.20;59.30;;;;;;4987948;28;20038;-30
2022/12/11 06:55:16;;;;;;;2.55;2.35;;;13.10;59.30;;;;;;4988032;28;20264;-30
2022/12/11 06:57:41;;;;;;;2.58;2.47;;;13.10;59.60;;;;;;4988523;28;20053;-31
2022/12/11 07:00:07;;;;;;;2.72;2.53;;;13.10;60.20;;;;;;4987017;28;20052;-30
2022/12/11 07:02:33;;;;;;;2.33;2.22;;;13.10;59.60;;;;;;4988638;28;20562;-30
2022/12/11 07:04:58;;;;;;;2.50;2.40;;;13.10;59.60;;;;;;4988278;28;20038;-29
2022/12/11 07:07:24;;;;;;;2.30;2.15;;;13.10;59.50;;;;;;4988741;28;20129;-30
2022/12/11 07:09:50;;;;;;;2.25;2.15;;;13.10;59.40;;;;;;4987735;28;20034;-29
2022/12/11 07:12:16;;;;;;;2.15;2.05;;;13.20;59.50;;;;;;4988119;28;20050;-31
2022/12/11 07:14:41;;;;;;;2.22;2.13;;;13.10;59.40;;;;;;4988251;28;20096;-32
2022/12/11 07:17:07;;;;;;;2.47;2.28;;;13.10;59.50;;;;;;4984385;28;20048;-33
2022/12/11 07:19:33;;;;;;;2.15;2.05;;;13.20;59.30;;;;;;4987117;28;20104;-33
2022/12/11 07:21:58;;;;;;;2.38;2.28;;;13.20;59.30;;;;;;4987672;28;20070;-30
2022/12/11 07:24:24;;;;;;;2.20;2.10;;;13.20;59.20;;;;;;4988652;28;20479;-29
2022/12/11 07:26:49;;;;;;;2.28;2.17;;;13.20;59.30;;;;;;4988242;28;20054;-28
2022/12/11 07:29:15;;;;;;;1.92;1.83;;;13.20;59.20;;;;;;4987304;28;20573;-30
2022/12/11 07:31:41;;;;;;;1.90;1.80;;;13.20;59.20;;;;;;4987678;28;20062;-29
2022/12/11 07:34:06;;;;;;;2.78;2.67;;;13.20;59.20;;;;;;4987186;28;20571;-30
2022/12/11 07:36:32;;;;;;;2.20;2.10;;;13.10;59.40;;;;;;4987671;28;20042;-32
2022/12/11 07:38:58;;;;;;;2.00;1.90;;;13.20;59.30;;;;;;4987106;28;20038;-30
2022/12/11 07:41:26;;;;;;;1.83;1.73;;;13.10;59.50;;;;;;5002637;28;20392;-34
2022/12/11 07:43:52;;;;;;;2.10;2.00;;;13.10;59.40;;;;;;4983358;28;20034;-30
2022/12/11 07:46:20;;;;;;;2.10;2.00;;;13.10;59.30;;;;;;4988183;28;20069;-32
2022/12/11 07:48:46;;;;;;;2.00;1.90;;;13.10;59.20;;;;;;5008045;28;20080;-31
2022/12/11 07:51:13;;;;;;;2.00;1.90;;;13.10;59.40;;;;;;4987176;28;21279;-30
2022/12/11 07:53:39;;;;;;;3.10;2.30;;;13.10;59.30;;;;;;4987298;28;20077;-33
2022/12/11 07:56:05;;;;;;;2.40;2.30;;;12.90;59.70;;;;;;4985899;28;20073;-30
2022/12/11 07:58:31;;;;;;;3.35;2.47;;;13.00;59.70;;;;;;4987456;28;20050;-29
2022/12/11 08:00:57;;;;;;;2.58;2.38;;;13.00;59.50;;;;;;4983746;28;20042;-27
2022/12/11 08:03:23;;;;;;;2.88;2.70;;;12.90;59.70;;;;;;4987393;28;20096;-33
2022/12/11 08:05:49;;;;;;;3.95;3.65;;;13.00;59.70;;;;;;5002898;28;20058;-35
2022/12/11 08:08:15;;;;;;;4.85;4.45;;;12.80;59.70;;;;;;4983705;28;20479;-33
2022/12/11 08:10:40;;;;;;;5.72;4.80;;;12.90;59.80;;;;;;4987665;28;20463;-33
2022/12/11 08:13:06;;;;;;;5.35;4.88;;;12.90;60.00;;;;;;4986899;28;20043;-31
2022/12/11 08:15:32;;;;;;;6.72;5.38;;;12.90;59.90;;;;;;4986974;28;20104;-29
2022/12/11 08:17:58;;;;;;;5.82;5.28;;;12.90;59.70;;;;;;4634318;28;9999915;-29
2022/12/11 08:20:23;;;;;;;9.35;5.82;;;12.90;59.90;;;;;;4981108;28;20805;-34
2022/12/11 08:22:49;;;;;;;7.00;5.50;;;12.90;60.00;;;;;;5008549;28;20114;-30
2022/12/11 08:25:15;;;;;;;9.43;6.65;;;12.90;59.90;;;;;;4983046;28;20050;-29
2022/12/11 08:27:40;;;;;;;10.57;7.82;;;12.90;60.30;;;;;;4985084;28;20039;-29
2022/12/11 08:30:06;;;;;;;11.35;8.15;;;12.90;60.20;;;;;;4984342;28;20145;-29
2022/12/11 08:32:33;;;;;;;15.27;9.60;;;13.00;59.90;;;;;;4984935;28;20058;-32
2022/12/11 08:34:58;;;;;;;11.10;9.13;;;12.90;60.10;;;;;;4982216;28;20043;-33
2022/12/11 08:37:24;;;;;;;14.45;10.15;;;12.90;60.30;;;;;;4984072;28;20096;-30
2022/12/11 08:39:50;;;;;;;14.32;10.25;;;12.80;60.30;;;;;;4984300;28;20058;-35
2022/12/11 08:42:15;;;;;;;15.38;10.13;;;12.80;60.50;;;;;;4983254;28;20112;-29
2022/12/11 08:44:41;;;;;;;16.13;10.55;;;12.80;60.30;;;;;;4982809;28;20035;-31
2022/12/11 08:47:08;;;;;;;12.80;9.15;;;12.80;60.30;;;;;;4984301;28;20508;-30
2022/12/11 08:49:34;;;;;;;15.00;9.13;;;12.90;60.30;;;;;;4984212;28;20495;-30
2022/12/11 08:52:01;;;;;;;12.95;9.27;;;12.90;60.10;;;;;;4984292;28;20053;-30
2022/12/11 08:54:27;;;;;;;13.70;9.43;;;12.90;60.10;;;;;;4979482;28;20140;-33
2022/12/11 08:56:53;;;;;;;12.55;9.45;;;12.90;60.10;;;;;;4989416;28;20408;-30
2022/12/11 08:59:18;;;;;;;10.98;8.68;;;12.90;60.00;;;;;;4987279;28;20042;-29
2022/12/11 09:01:44;;;;;;;10.52;8.23;;;12.90;60.20;;;;;;4990406;28;20041;-32
2022/12/11 09:04:09;;;;;;;10.18;7.93;;;12.90;60.70;;;;;;4984414;28;20069;-30
2022/12/11 09:06:35;;;;;;;10.98;8.18;;;12.80;60.10;;;;;;4987871;28;20404;-32
2022/12/11 09:09:01;;;;;;;11.68;8.32;;;12.80;60.40;;;;;;4985158;28;20041;-30
2022/12/11 09:11:28;;;;;;;12.00;8.15;;;12.90;60.30;;;;;;4986525;28;20051;-31
2022/12/11 09:13:54;;;;;;;10.90;8.27;;;12.90;60.00;;;;;;4633749;28;9999889;-30
2022/12/11 09:16:21;;;;;;;9.32;7.97;;;13.00;60.10;;;;;;4979723;28;20054;-30
2022/12/11 09:18:48;;;;;;;11.23;8.98;;;12.90;59.80;;;;;;4981603;28;20046;-38
2022/12/11 09:21:16;;;;;;;8.48;7.50;;;13.00;60.10;;;;;;4973833;28;20173;-33
2022/12/11 09:23:41;;;;;;;10.32;8.07;;;12.90;59.90;;;;;;4981351;28;20081;-29
2022/12/11 09:26:09;;;;;;;10.30;8.32;;;13.00;60.10;;;;;;4985238;28;20039;-32
2022/12/11 09:28:35;;;;;;;10.25;8.73;;;13.00;59.50;;;;;;4980457;28;20507;-30
2022/12/11 09:31:01;;;;;;;10.95;7.90;;;13.00;59.90;;;;;;4979335;28;20065;-29
2022/12/11 09:33:26;;;;;;;9.90;7.88;;;12.90;59.90;;;;;;4982175;28;20050;-30
2022/12/11 09:35:59;;;;;;;10.50;7.90;;;12.90;60.00;;;;;;4982225;28;20046;-29
2022/12/11 09:38:24;;;;;;;11.15;8.43;;;13.00;59.90;;;;;;4979051;28;20046;-32
2022/12/11 09:40:50;;;;;;;9.65;8.45;;;12.90;59.90;;;;;;4983495;28;20831;-30
2022/12/11 09:43:38;;;;;;;9.32;7.65;;;13.00;59.90;;;;;;4981444;28;20044;-28
2022/12/11 09:46:06;;;;;;;8.77;7.97;;;13.00;59.90;;;;;;4974296;28;20035;-32
2022/12/11 09:48:32;;;;;;;11.48;8.18;;;13.00;60.00;;;;;;4989576;28;20056;-30
2022/12/11 09:50:57;;;;;;;9.20;7.78;;;13.00;60.00;;;;;;4983302;28;20042;-32
2022/12/11 09:53:29;;;;;;;9.35;6.82;;;12.90;60.00;;;;;;4993183;28;20235;-30
2022/12/11 09:56:12;;;;;;;9.40;7.32;;;12.90;59.90;;;;;;5012697;28;20035;-31
2022/12/11 09:58:40;;;;;;;7.90;7.05;;;12.90;60.20;;;;;;4980855;28;20050;-29
2022/12/11 10:01:30;;;;;;;7.75;7.05;;;13.00;60.00;;;;;;4978011;28;20072;-30
2022/12/11 10:04:02;;;;;;;8.65;7.38;;;13.00;60.10;;;;;;4984473;28;20050;-30
2022/12/11 10:06:29;;;;;;;7.05;6.35;;;13.00;60.20;;;;;;4972243;28;20047;-31
2022/12/11 10:08:55;;;;;;;8.63;6.70;;;13.00;60.00;;;;;;4971784;28;20042;-33
2022/12/11 10:11:20;;;;;;;10.93;7.30;;;13.00;60.00;;;;;;4979500;28;20396;-29
2022/12/11 10:14:17;;;;;;;8.73;6.85;;;13.00;59.90;;;;;;4976883;28;20066;-28
2022/12/11 10:16:45;;;;;;;7.40;6.68;;;13.00;60.20;;;;;;4976497;28;20039;-31
2022/12/11 10:19:20;;;;;;;12.98;6.65;;;13.00;60.10;;;;;;4991501;28;20077;-32
2022/12/11 10:21:46;;;;;;;6.78;6.03;;;13.00;60.30;;;;;;5009462;28;20385;-30
2022/12/11 10:24:52;;;;;;;6.88;6.15;;;13.00;60.50;;;;;;4977322;28;20078;-31
2022/12/11 10:27:20;;;;;;;7.00;6.38;;;13.00;61.10;;;;;;4978070;28;20056;-29
2022/12/11 10:29:47;;;;;;;6.65;5.72;;;13.00;61.20;;;;;;4974708;28;20173;-29
2022/12/11 10:32:24;;;;;;;6.65;6.05;;;13.00;61.60;;;;;;4975385;28;20046;-32
2022/12/11 10:35:01;;;;;;;6.47;5.88;;;13.00;61.40;;;;;;4979819;28;20039;-30
2022/12/11 10:37:27;;;;;;;7.18;6.47;;;13.00;61.80;;;;;;4962753;28;20038;-30
2022/12/11 10:39:52;;;;;;;7.53;6.82;;;13.10;61.90;;;;;;4975889;28;20100;-30
2022/12/11 10:42:19;;;;;;;7.32;6.30;;;13.10;61.90;;;;;;4975707;28;20046;-29
2022/12/11 10:45:04;;;;;;;7.50;6.65;;;13.00;62.10;;;;;;4962566;28;20149;-31
2022/12/11 10:47:29;;;;;;;;;;;13.00;62.10;;;;;;4979117;28;20628;-30
2022/12/11 10:49:57;;;;;;;7.43;6.53;;;13.10;61.90;;;;;;4979974;28;19926;-30
2022/12/11 10:52:31;;;;;;;7.88;7.03;;;13.10;62.00;;;;;;4976707;28;20812;-31
2022/12/11 10:55:03;;;;;;;6.82;5.90;;;13.10;61.80;;;;;;4975109;28;20362;-30
2022/12/11 10:57:33;;;;;;;6.20;5.63;;;13.10;61.70;;;;;;4977182;28;20034;-31
2022/12/11 10:59:59;;;;;;;7.40;6.53;;;13.10;61.70;;;;;;4979730;28;20042;-29
2022/12/11 11:02:35;;;;;;;6.38;5.78;;;13.20;61.60;;;;;;4974451;28;20039;-33
2022/12/11 11:05:15;;;;;;;7.90;6.28;;;13.20;61.40;;;;;;4970127;28;20046;-30
2022/12/11 11:07:41;;;;;;;6.50;5.97;;;13.20;61.20;;;;;;4974691;28;20061;-33
2022/12/11 11:10:09;;;;;;;6.28;5.68;;;13.20;61.30;;;;;;4977746;28;20695;-31
2022/12/11 11:12:48;;;;;;;5.60;5.20;;;13.20;61.30;;;;;;4989175;28;20514;-29
2022/12/11 11:15:16;;;;;;;5.93;5.43;;;13.30;61.10;;;;;;4975430;28;20065;-30
2022/12/11 11:17:47;;;;;;;6.25;5.65;;;13.20;61.30;;;;;;4979551;28;20046;-32
2022/12/11 11:20:15;;;;;;;5.70;5.30;;;13.20;61.20;;;;;;4970877;28;20053;-35
2022/12/11 11:22:46;;;;;;;5.38;4.88;;;13.20;61.00;;;;;;4976624;28;20045;-29
2022/12/11 11:25:18;;;;;;;5.80;5.30;;;13.30;60.90;;;;;;4990607;28;20050;-32
2022/12/11 11:28:03;;;;;;;6.60;5.90;;;13.20;61.00;;;;;;4976975;28;20134;-30
2022/12/11 11:30:39;;;;;;;7.15;6.45;;;13.20;61.20;;;;;;4976269;28;20065;-31
2022/12/11 11:33:15;;;;;;;6.55;5.95;;;13.20;61.20;;;;;;4973041;28;20069;-20
2022/12/11 11:36:12;;;;;;;6.82;6.22;;;13.20;61.20;;;;;;5000679;28;20490;-33
2022/12/11 11:38:42;;;;;;;7.15;6.55;;;13.30;61.00;;;;;;4975444;28;20073;-34
2022/12/11 11:41:47;;;;;;;7.95;6.88;;;13.30;61.10;;;;;;4961484;28;20041;-30
2022/12/11 11:44:16;;;;;;;7.82;6.93;;;13.20;61.20;;;;;;4968490;28;20190;-34
2022/12/11 11:46:45;;;;;;;6.53;6.03;;;13.20;61.30;;;;;;4975603;28;20587;-33
2022/12/11 11:49:19;;;;;;;6.93;6.18;;;13.30;61.20;;;;;;4955904;28;20077;-29
2022/12/11 11:51:55;;;;;;;;;;;13.30;61.10;;;;;;4976877;28;20065;-29
2022/12/11 11:54:55;;;;;;;6.95;6.22;;;13.30;61.10;;;;;;4971931;28;19962;-29
2022/12/11 11:57:34;;;;;;;6.57;5.97;;;13.30;61.10;;;;;;4965404;28;20109;-31
2022/12/11 12:00:22;;;;;;;6.20;5.70;;;13.20;61.20;;;;;;4959290;28;20531;-33
2022/12/11 12:02:49;;;;;;;6.45;5.85;;;13.30;61.10;;;;;;4975239;28;20574;-34
2022/12/11 12:05:15;;;;;;;6.53;5.93;;;13.20;61.20;;;;;;4987417;28;20833;-32
2022/12/11 12:08:25;;;;;;;5.95;5.45;;;13.30;61.20;;;;;;4976025;28;20065;-31
2022/12/11 12:11:04;;;;;;;5.68;5.25;;;13.30;61.10;;;;;;4976248;28;20096;-30
2022/12/11 12:13:42;;;;;;;6.65;6.07;;;13.20;61.10;;;;;;4970979;28;20055;-31
2022/12/11 12:16:13;;;;;;;6.28;5.78;;;13.30;61.10;;;;;;4955788;28;20038;-29
2022/12/11 12:18:48;;;;;;;6.03;5.50;;;13.30;61.20;;;;;;4959891;28;20053;-31
2022/12/11 12:21:28;;;;;;;6.00;5.30;;;13.30;61.20;;;;;;4974249;28;20050;-32
2022/12/11 12:24:24;;;;;;;6.00;5.50;;;13.30;61.10;;;;;;4970820;28;20443;-33
2022/12/11 12:26:58;;;;;;;5.80;5.40;;;13.30;61.10;;;;;;4973281;28;20067;-31
2022/12/11 12:29:52;;;;;;;6.05;5.55;;;13.30;61.10;;;;;;4960265;28;20046;-30
2022/12/11 12:32:40;;;;;;;5.05;4.65;;;13.30;61.10;;;;;;4976944;28;20196;-30
2022/12/11 12:35:20;;;;;;;5.55;5.05;;;13.30;61.00;;;;;;4963792;28;20058;-31
2022/12/11 12:37:54;;;;;;;6.03;5.47;;;13.40;61.00;;;;;;4961443;28;20714;-32
2022/12/11 12:40:28;;;;;;;5.78;5.28;;;13.40;60.90;;;;;;4962096;28;20054;-31
2022/12/11 12:43:23;;;;;;;5.10;4.70;;;13.40;60.90;;;;;;4959525;28;20133;-30
2022/12/11 12:46:16;;;;;;;4.95;4.63;;;13.40;60.90;;;;;;4958856;28;20047;-31
2022/12/11 12:48:42;;;;;;;5.60;5.10;;;13.40;60.60;;;;;;4964050;28;20050;-29
2022/12/11 12:51:08;;;;;;;5.57;5.07;;;13.40;60.60;;;;;;4995657;28;20089;-30
2022/12/11 12:53:34;;;;;;;5.15;4.75;;;13.40;60.60;;;;;;4981901;28;20050;-31
2022/12/11 12:56:00;;;;;;;5.47;5.07;;;13.40;60.60;;;;;;5015501;28;20491;-30
2022/12/11 12:58:34;;;;;;;4.75;4.45;;;13.40;60.70;;;;;;4984764;28;20059;-33
2022/12/11 13:01:19;;;;;;;4.60;4.30;;;13.40;60.70;;;;;;4985131;28;20125;-28
2022/12/11 13:04:05;;;;;;;4.30;4.10;;;13.50;60.70;;;;;;5004431;28;20076;-29